sensor_id;sensor_type;location;lat;lon;timestamp;pressure;altitude;pressure_sealevel;temperature;humidity
6150;BME280;3106;42.670;23.318;2023-06-10T00:01:45;94066.56;;;18.51;100.00
6150;BME280;3106;42.670;23.318;2023-06-10T00:04:13;94081.25;;;18.53;100.00
6150;BME280;3106;42.670;23.318;2023-06-10T00:06:40;94078.69;;;18.36;100.00
6150;BME280;3106;42.670;23.318;2023-06-10T00:09:06;94079.19;;;18.17;100.00
6150;BME280;3106;42.670;23.318;2023-06-10T00:11:35;94084.63;;;18.14;100.00
6150;BME280;3106;42.670;23.318;2023-06-10T00:14:02;94080.81;;;18.01;100.00
6150;BME280;3106;42.670;23.318;2023-06-10T00:16:29;94081.66;;;17.91;100.00
6150;BME280;3106;42.670;23.318;2023-06-10T00:18:59;94082.47;;;17.88;100.00
6150;BME280;3106;42.670;23.318;2023-06-10T00:21:26;94070.13;;;17.83;100.00
6150;BME280;3106;42.670;23.318;2023-06-10T00:23:53;94077.84;;;17.85;100.00
6150;BME280;3106;42.670;23.318;2023-06-10T00:26:21;94078.19;;;17.94;100.00
6150;BME280;3106;42.670;23.318;2023-06-10T00:28:47;94090.53;;;17.98;100.00
6150;BME280;3106;42.670;23.318;2023-06-10T00:31:14;94084.75;;;17.96;100.00
6150;BME280;3106;42.670;23.318;2023-06-10T00:33:41;94081.97;;;18.03;100.00
6150;BME280;3106;42.670;23.318;2023-06-10T00:36:09;94084.25;;;18.12;100.00
6150;BME280;3106;42.670;23.318;2023-06-10T00:38:36;94091.94;;;18.17;100.00
6150;BME280;3106;42.670;23.318;2023-06-10T00:41:02;94074.19;;;18.16;100.00
6150;BME280;3106;42.670;23.318;2023-06-10T00:43:29;94089.56;;;18.25;100.00
6150;BME280;3106;42.670;23.318;2023-06-10T00:45:56;94088.38;;;18.33;100.00
6150;BME280;3106;42.670;23.318;2023-06-10T00:48:23;94082.13;;;18.40;100.00
6150;BME280;3106;42.670;23.318;2023-06-10T00:50:50;94081.75;;;18.38;100.00
6150;BME280;3106;42.670;23.318;2023-06-10T00:53:18;94072.50;;;18.35;100.00
6150;BME280;3106;42.670;23.318;2023-06-10T00:55:46;94070.16;;;18.37;100.00
6150;BME280;3106;42.670;23.318;2023-06-10T00:58:13;94075.47;;;18.51;100.00
6150;BME280;3106;42.670;23.318;2023-06-10T01:00:41;94080.03;;;18.58;100.00
6150;BME280;3106;42.670;23.318;2023-06-10T01:03:07;94083.91;;;18.60;100.00
6150;BME280;3106;42.670;23.318;2023-06-10T01:05:35;94092.00;;;18.64;100.00
6150;BME280;3106;42.670;23.318;2023-06-10T01:08:07;94087.34;;;18.64;100.00
6150;BME280;3106;42.670;23.318;2023-06-10T01:10:42;94090.78;;;18.72;100.00
6150;BME280;3106;42.670;23.318;2023-06-10T01:13:10;94087.78;;;18.56;100.00
6150;BME280;3106;42.670;23.318;2023-06-10T01:15:38;94097.88;;;18.55;100.00
6150;BME280;3106;42.670;23.318;2023-06-10T01:18:06;94097.13;;;18.51;100.00
6150;BME280;3106;42.670;23.318;2023-06-10T01:20:36;94098.72;;;18.45;100.00
6150;BME280;3106;42.670;23.318;2023-06-10T01:23:07;94093.69;;;18.47;100.00
6150;BME280;3106;42.670;23.318;2023-06-10T01:25:36;94092.88;;;18.50;100.00
6150;BME280;3106;42.670;23.318;2023-06-10T01:28:07;94087.84;;;18.52;100.00
6150;BME280;3106;42.670;23.318;2023-06-10T01:30:39;94090.97;;;18.47;100.00
6150;BME280;3106;42.670;23.318;2023-06-10T01:33:10;94093.69;;;18.47;100.00
6150;BME280;3106;42.670;23.318;2023-06-10T01:35:37;94095.66;;;18.43;100.00
6150;BME280;3106;42.670;23.318;2023-06-10T01:38:06;94098.38;;;18.40;100.00
6150;BME280;3106;42.670;23.318;2023-06-10T01:40:34;94092.53;;;18.45;100.00
6150;BME280;3106;42.670;23.318;2023-06-10T01:43:01;94086.00;;;18.42;100.00
6150;BME280;3106;42.670;23.318;2023-06-10T01:45:28;94086.72;;;18.46;100.00
6150;BME280;3106;42.670;23.318;2023-06-10T01:47:54;94085.53;;;18.51;100.00
6150;BME280;3106;42.670;23.318;2023-06-10T01:50:21;94085.47;;;18.58;100.00
6150;BME280;3106;42.670;23.318;2023-06-10T01:52:48;94069.25;;;18.54;100.00
6150;BME280;3106;42.670;23.318;2023-06-10T01:55:17;94081.97;;;18.61;100.00
6150;BME280;3106;42.670;23.318;2023-06-10T01:57:43;94073.41;;;18.66;100.00
6150;BME280;3106;42.670;23.318;2023-06-10T02:00:11;94073.78;;;18.68;100.00
6150;BME280;3106;42.670;23.318;2023-06-10T02:02:38;94062.47;;;18.76;100.00
6150;BME280;3106;42.670;23.318;2023-06-10T02:05:05;94063.63;;;18.79;100.00
6150;BME280;3106;42.670;23.318;2023-06-10T02:07:32;94065.94;;;18.77;100.00
6150;BME280;3106;42.670;23.318;2023-06-10T02:09:59;94069.00;;;18.82;100.00
6150;BME280;3106;42.670;23.318;2023-06-10T02:12:27;94062.00;;;18.85;100.00
6150;BME280;3106;42.670;23.318;2023-06-10T02:14:53;94060.44;;;18.87;100.00
6150;BME280;3106;42.670;23.318;2023-06-10T02:17:20;94063.63;;;18.79;100.00
6150;BME280;3106;42.670;23.318;2023-06-10T02:19:48;94065.84;;;18.87;100.00
6150;BME280;3106;42.670;23.318;2023-06-10T02:22:19;94060.38;;;18.94;100.00
6150;BME280;3106;42.670;23.318;2023-06-10T02:24:45;94055.66;;;18.98;100.00
6150;BME280;3106;42.670;23.318;2023-06-10T02:27:12;94056.84;;;18.97;100.00
6150;BME280;3106;42.670;23.318;2023-06-10T02:29:40;94055.66;;;19.02;100.00
6150;BME280;3106;42.670;23.318;2023-06-10T02:32:09;94048.28;;;19.02;100.00
6150;BME280;3106;42.670;23.318;2023-06-10T02:34:36;94046.00;;;18.97;100.00
6150;BME280;3106;42.670;23.318;2023-06-10T02:37:03;94047.53;;;19.02;100.00
6150;BME280;3106;42.670;23.318;2023-06-10T02:39:30;94059.03;;;19.09;100.00
6150;BME280;3106;42.670;23.318;2023-06-10T02:41:57;94047.81;;;19.07;100.00
6150;BME280;3106;42.670;23.318;2023-06-10T02:44:24;94053.19;;;19.14;100.00
6150;BME280;3106;42.670;23.318;2023-06-10T02:46:52;94036.88;;;19.21;100.00
6150;BME280;3106;42.670;23.318;2023-06-10T02:49:19;94039.63;;;19.18;100.00
6150;BME280;3106;42.670;23.318;2023-06-10T02:51:45;94039.25;;;19.16;100.00
6150;BME280;3106;42.670;23.318;2023-06-10T02:54:12;94039.25;;;19.12;100.00
6150;BME280;3106;42.670;23.318;2023-06-10T02:56:39;94029.66;;;19.04;100.00
6150;BME280;3106;42.670;23.318;2023-06-10T02:59:07;94041.66;;;19.07;100.00
6150;BME280;3106;42.670;23.318;2023-06-10T03:01:33;94049.06;;;19.03;100.00
6150;BME280;3106;42.670;23.318;2023-06-10T03:04:03;94039.34;;;19.05;100.00
6150;BME280;3106;42.670;23.318;2023-06-10T03:06:30;94044.81;;;19.02;100.00
6150;BME280;3106;42.670;23.318;2023-06-10T03:08:58;94037.44;;;19.02;100.00
6150;BME280;3106;42.670;23.318;2023-06-10T03:11:25;94038.31;;;18.96;100.00
6150;BME280;3106;42.670;23.318;2023-06-10T03:13:52;94049.44;;;19.01;100.00
6150;BME280;3106;42.670;23.318;2023-06-10T03:16:20;94052.56;;;19.00;100.00
6150;BME280;3106;42.670;23.318;2023-06-10T03:18:48;94043.75;;;18.89;100.00
6150;BME280;3106;42.670;23.318;2023-06-10T03:21:16;94051.06;;;18.95;100.00
6150;BME280;3106;42.670;23.318;2023-06-10T03:23:43;94059.63;;;18.90;100.00
6150;BME280;3106;42.670;23.318;2023-06-10T03:26:10;94055.94;;;18.74;100.00
6150;BME280;3106;42.670;23.318;2023-06-10T03:28:39;94061.81;;;18.65;100.00
6150;BME280;3106;42.670;23.318;2023-06-10T03:31:06;94066.84;;;18.63;100.00
6150;BME280;3106;42.670;23.318;2023-06-10T03:33:33;94074.59;;;18.61;100.00
6150;BME280;3106;42.670;23.318;2023-06-10T03:36:01;94072.31;;;18.60;100.00
6150;BME280;3106;42.670;23.318;2023-06-10T03:38:29;94078.91;;;18.55;100.00
6150;BME280;3106;42.670;23.318;2023-06-10T03:40:56;94075.06;;;18.53;100.00
6150;BME280;3106;42.670;23.318;2023-06-10T03:43:22;94078.56;;;18.50;100.00
6150;BME280;3106;42.670;23.318;2023-06-10T03:45:49;94070.88;;;18.45;100.00
6150;BME280;3106;42.670;23.318;2023-06-10T03:48:16;94068.94;;;18.45;100.00
6150;BME280;3106;42.670;23.318;2023-06-10T03:50:43;94064.72;;;18.41;100.00
6150;BME280;3106;42.670;23.318;2023-06-10T03:53:10;94079.72;;;18.49;100.00
6150;BME280;3106;42.670;23.318;2023-06-10T03:55:38;94073.09;;;18.57;100.00
6150;BME280;3106;42.670;23.318;2023-06-10T03:58:04;94069.13;;;18.68;100.00
6150;BME280;3106;42.670;23.318;2023-06-10T04:00:31;94068.03;;;18.62;100.00
6150;BME280;3106;42.670;23.318;2023-06-10T04:03:06;94076.84;;;18.70;100.00
6150;BME280;3106;42.670;23.318;2023-06-10T04:05:35;94079.50;;;18.73;100.00
6150;BME280;3106;42.670;23.318;2023-06-10T04:08:02;94074.06;;;18.80;100.00
6150;BME280;3106;42.670;23.318;2023-06-10T04:10:28;94070.47;;;18.90;100.00
6150;BME280;3106;42.670;23.318;2023-06-10T04:12:56;94072.75;;;18.92;100.00
6150;BME280;3106;42.670;23.318;2023-06-10T04:15:23;94078.97;;;18.92;100.00
6150;BME280;3106;42.670;23.318;2023-06-10T04:17:50;94075.44;;;18.99;100.00
6150;BME280;3106;42.670;23.318;2023-06-10T04:20:18;94082.03;;;18.94;100.00
6150;BME280;3106;42.670;23.318;2023-06-10T04:22:44;94085.13;;;18.96;100.00
6150;BME280;3106;42.670;23.318;2023-06-10T04:25:11;94083.22;;;18.90;100.00
6150;BME280;3106;42.670;23.318;2023-06-10T04:27:38;94083.66;;;18.85;100.00
6150;BME280;3106;42.670;23.318;2023-06-10T04:30:07;94081.81;;;18.78;100.00
6150;BME280;3106;42.670;23.318;2023-06-10T04:32:34;94086.78;;;18.83;100.00
6150;BME280;3106;42.670;23.318;2023-06-10T04:35:01;94082.44;;;18.93;100.00
6150;BME280;3106;42.670;23.318;2023-06-10T04:37:27;94080.13;;;18.91;100.00
6150;BME280;3106;42.670;23.318;2023-06-10T04:39:54;94076.25;;;18.92;100.00
6150;BME280;3106;42.670;23.318;2023-06-10T04:42:21;94079.31;;;18.98;100.00
6150;BME280;3106;42.670;23.318;2023-06-10T04:44:48;94087.38;;;19.01;100.00
6150;BME280;3106;42.670;23.318;2023-06-10T04:47:16;94084.59;;;19.08;100.00
6150;BME280;3106;42.670;23.318;2023-06-10T04:49:43;94076.44;;;19.15;100.00
6150;BME280;3106;42.670;23.318;2023-06-10T04:52:10;94087.94;;;19.26;100.00
6150;BME280;3106;42.670;23.318;2023-06-10T04:54:38;94082.41;;;19.33;100.00
6150;BME280;3106;42.670;23.318;2023-06-10T04:57:06;94082.25;;;19.47;100.00
6150;BME280;3106;42.670;23.318;2023-06-10T04:59:33;94073.81;;;19.42;100.00
6150;BME280;3106;42.670;23.318;2023-06-10T05:02:03;94078.88;;;19.40;100.00
6150;BME280;3106;42.670;23.318;2023-06-10T05:04:31;94076.44;;;19.49;100.00
6150;BME280;3106;42.670;23.318;2023-06-10T05:06:58;94081.03;;;19.52;100.00
6150;BME280;3106;42.670;23.318;2023-06-10T05:09:24;94079.75;;;19.63;100.00
6150;BME280;3106;42.670;23.318;2023-06-10T05:11:52;94078.50;;;19.68;100.00
6150;BME280;3106;42.670;23.318;2023-06-10T05:14:19;94077.75;;;19.67;100.00
6150;BME280;3106;42.670;23.318;2023-06-10T05:16:47;94080.72;;;19.76;100.00
6150;BME280;3106;42.670;23.318;2023-06-10T05:19:13;94073.84;;;19.72;100.00
6150;BME280;3106;42.670;23.318;2023-06-10T05:21:44;94074.22;;;19.70;100.00
6150;BME280;3106;42.670;23.318;2023-06-10T05:24:11;94071.88;;;19.72;100.00
6150;BME280;3106;42.670;23.318;2023-06-10T05:26:37;94071.78;;;19.79;100.00
6150;BME280;3106;42.670;23.318;2023-06-10T05:29:04;94065.88;;;19.84;100.00
6150;BME280;3106;42.670;23.318;2023-06-10T05:31:31;94070.41;;;19.94;100.00
6150;BME280;3106;42.670;23.318;2023-06-10T05:33:58;94078.50;;;20.01;100.00
6150;BME280;3106;42.670;23.318;2023-06-10T05:36:26;94072.59;;;20.06;100.00
6150;BME280;3106;42.670;23.318;2023-06-10T05:38:54;94079.34;;;20.21;100.00
6150;BME280;3106;42.670;23.318;2023-06-10T05:41:21;94075.91;;;20.17;100.00
6150;BME280;3106;42.670;23.318;2023-06-10T05:43:48;94070.44;;;20.20;100.00
6150;BME280;3106;42.670;23.318;2023-06-10T05:46:15;94074.06;;;20.37;100.00
6150;BME280;3106;42.670;23.318;2023-06-10T05:48:42;94080.44;;;20.27;100.00
6150;BME280;3106;42.670;23.318;2023-06-10T05:51:09;94077.00;;;20.49;100.00
6150;BME280;3106;42.670;23.318;2023-06-10T05:53:36;94076.00;;;20.63;100.00
6150;BME280;3106;42.670;23.318;2023-06-10T05:56:05;94073.44;;;20.75;100.00
6150;BME280;3106;42.670;23.318;2023-06-10T05:58:32;94081.19;;;20.77;100.00
6150;BME280;3106;42.670;23.318;2023-06-10T06:00:59;94086.22;;;21.01;100.00
6150;BME280;3106;42.670;23.318;2023-06-10T06:03:26;94085.16;;;21.38;99.40
6150;BME280;3106;42.670;23.318;2023-06-10T06:05:53;94096.94;;;21.50;98.28
6150;BME280;3106;42.670;23.318;2023-06-10T06:08:20;94096.31;;;21.43;97.50
6150;BME280;3106;42.670;23.318;2023-06-10T06:10:47;94091.50;;;21.50;97.94
6150;BME280;3106;42.670;23.318;2023-06-10T06:13:15;94087.47;;;21.39;96.72
6150;BME280;3106;42.670;23.318;2023-06-10T06:15:42;94083.84;;;21.26;96.21
6150;BME280;3106;42.670;23.318;2023-06-10T06:18:09;94087.81;;;21.41;96.48
6150;BME280;3106;42.670;23.318;2023-06-10T06:20:36;94069.59;;;21.38;95.73
6150;BME280;3106;42.670;23.318;2023-06-10T06:23:02;94089.94;;;21.72;94.41
6150;BME280;3106;42.670;23.318;2023-06-10T06:25:29;94094.94;;;21.74;93.72
6150;BME280;3106;42.670;23.318;2023-06-10T06:27:56;94086.75;;;21.54;94.05
6150;BME280;3106;42.670;23.318;2023-06-10T06:30:24;94085.88;;;21.42;93.86
6150;BME280;3106;42.670;23.318;2023-06-10T06:32:51;94092.41;;;21.44;93.05
6150;BME280;3106;42.670;23.318;2023-06-10T06:35:18;94090.25;;;21.36;92.66
6150;BME280;3106;42.670;23.318;2023-06-10T06:37:45;94092.50;;;21.60;91.70
6150;BME280;3106;42.670;23.318;2023-06-10T06:40:12;94093.91;;;21.87;90.94
6150;BME280;3106;42.670;23.318;2023-06-10T06:42:39;94095.22;;;21.99;89.49
6150;BME280;3106;42.670;23.318;2023-06-10T06:45:06;94081.91;;;21.65;90.99
6150;BME280;3106;42.670;23.318;2023-06-10T06:47:35;94087.47;;;21.78;90.74
6150;BME280;3106;42.670;23.318;2023-06-10T06:50:02;94078.41;;;21.84;90.48
6150;BME280;3106;42.670;23.318;2023-06-10T06:52:28;94082.50;;;21.92;88.62
6150;BME280;3106;42.670;23.318;2023-06-10T06:54:55;94070.38;;;21.97;88.72
6150;BME280;3106;42.670;23.318;2023-06-10T06:57:22;94078.59;;;22.29;89.09
6150;BME280;3106;42.670;23.318;2023-06-10T06:59:49;94072.09;;;22.42;88.01
6150;BME280;3106;42.670;23.318;2023-06-10T07:02:16;94081.97;;;22.52;86.58
6150;BME280;3106;42.670;23.318;2023-06-10T07:04:45;94082.06;;;22.65;86.32
6150;BME280;3106;42.670;23.318;2023-06-10T07:07:14;94064.94;;;22.64;86.33
6150;BME280;3106;42.670;23.318;2023-06-10T07:09:41;94080.09;;;22.65;85.24
6150;BME280;3106;42.670;23.318;2023-06-10T07:12:08;94069.28;;;22.46;86.13
6150;BME280;3106;42.670;23.318;2023-06-10T07:14:35;94073.25;;;22.41;86.75
6150;BME280;3106;42.670;23.318;2023-06-10T07:17:02;94058.88;;;22.57;85.74
6150;BME280;3106;42.670;23.318;2023-06-10T07:19:29;94069.47;;;23.31;82.50
6150;BME280;3106;42.670;23.318;2023-06-10T07:21:57;94061.94;;;24.17;76.53
6150;BME280;3106;42.670;23.318;2023-06-10T07:24:24;94068.09;;;24.46;74.94
6150;BME280;3106;42.670;23.318;2023-06-10T07:26:50;94068.28;;;24.01;77.35
6150;BME280;3106;42.670;23.318;2023-06-10T07:29:17;94069.16;;;24.11;76.08
6150;BME280;3106;42.670;23.318;2023-06-10T07:31:44;94071.78;;;24.02;74.93
6150;BME280;3106;42.670;23.318;2023-06-10T07:34:10;94067.22;;;24.36;73.42
6150;BME280;3106;42.670;23.318;2023-06-10T07:36:37;94073.44;;;24.37;72.63
6150;BME280;3106;42.670;23.318;2023-06-10T07:39:05;94067.00;;;24.31;73.38
6150;BME280;3106;42.670;23.318;2023-06-10T07:41:33;94065.34;;;24.46;73.55
6150;BME280;3106;42.670;23.318;2023-06-10T07:44:00;94066.03;;;24.25;73.22
6150;BME280;3106;42.670;23.318;2023-06-10T07:46:27;94068.28;;;24.14;73.35
6150;BME280;3106;42.670;23.318;2023-06-10T07:48:54;94069.81;;;24.02;73.20
6150;BME280;3106;42.670;23.318;2023-06-10T07:51:21;94061.38;;;23.84;73.09
6150;BME280;3106;42.670;23.318;2023-06-10T07:53:48;94063.25;;;23.59;72.25
6150;BME280;3106;42.670;23.318;2023-06-10T07:56:16;94060.72;;;23.52;72.52
6150;BME280;3106;42.670;23.318;2023-06-10T07:58:43;94064.50;;;23.42;73.57
6150;BME280;3106;42.670;23.318;2023-06-10T08:01:10;94070.16;;;23.76;72.31
6150;BME280;3106;42.670;23.318;2023-06-10T08:03:36;94066.66;;;23.63;72.55
6150;BME280;3106;42.670;23.318;2023-06-10T08:06:03;94069.19;;;24.23;70.20
6150;BME280;3106;42.670;23.318;2023-06-10T08:08:31;94060.53;;;24.50;67.47
6150;BME280;3106;42.670;23.318;2023-06-10T08:10:58;94059.56;;;24.81;66.90
6150;BME280;3106;42.670;23.318;2023-06-10T08:13:26;94047.00;;;25.17;64.29
6150;BME280;3106;42.670;23.318;2023-06-10T08:15:53;94061.78;;;25.54;62.08
6150;BME280;3106;42.670;23.318;2023-06-10T08:18:21;94058.53;;;25.68;60.05
6150;BME280;3106;42.670;23.318;2023-06-10T08:20:48;94057.75;;;25.67;56.67
6150;BME280;3106;42.670;23.318;2023-06-10T08:23:15;94057.47;;;25.31;53.86
6150;BME280;3106;42.670;23.318;2023-06-10T08:25:42;94050.13;;;25.28;53.19
6150;BME280;3106;42.670;23.318;2023-06-10T08:28:08;94047.75;;;25.73;51.69
6150;BME280;3106;42.670;23.318;2023-06-10T08:30:37;94044.06;;;25.67;51.75
6150;BME280;3106;42.670;23.318;2023-06-10T08:33:03;94029.78;;;25.29;52.52
6150;BME280;3106;42.670;23.318;2023-06-10T08:35:30;94042.53;;;25.66;51.88
6150;BME280;3106;42.670;23.318;2023-06-10T08:37:57;94038.06;;;25.81;51.52
6150;BME280;3106;42.670;23.318;2023-06-10T08:40:24;94025.44;;;26.05;51.57
6150;BME280;3106;42.670;23.318;2023-06-10T08:42:57;94039.44;;;26.28;49.63
6150;BME280;3106;42.670;23.318;2023-06-10T08:45:29;94026.44;;;26.59;49.23
6150;BME280;3106;42.670;23.318;2023-06-10T08:47:59;94034.13;;;26.82;49.24
6150;BME280;3106;42.670;23.318;2023-06-10T08:50:28;94022.25;;;26.85;48.16
6150;BME280;3106;42.670;23.318;2023-06-10T08:52:57;94035.13;;;27.33;47.61
6150;BME280;3106;42.670;23.318;2023-06-10T08:55:29;94022.63;;;27.32;46.25
6150;BME280;3106;42.670;23.318;2023-06-10T08:57:57;94027.38;;;27.23;46.09
6150;BME280;3106;42.670;23.318;2023-06-10T09:00:25;94029.50;;;27.37;46.15
6150;BME280;3106;42.670;23.318;2023-06-10T09:02:53;94003.34;;;26.96;44.91
6150;BME280;3106;42.670;23.318;2023-06-10T09:05:21;94012.41;;;26.48;46.48
6150;BME280;3106;42.670;23.318;2023-06-10T09:07:49;94021.84;;;25.44;49.20
6150;BME280;3106;42.670;23.318;2023-06-10T09:10:17;94011.34;;;25.08;50.90
6150;BME280;3106;42.670;23.318;2023-06-10T09:12:44;93998.28;;;24.91;50.76
6150;BME280;3106;42.670;23.318;2023-06-10T09:15:11;94010.44;;;25.45;49.80
6150;BME280;3106;42.670;23.318;2023-06-10T09:17:40;94017.81;;;25.79;47.84
6150;BME280;3106;42.670;23.318;2023-06-10T09:20:08;94003.03;;;25.76;46.89
6150;BME280;3106;42.670;23.318;2023-06-10T09:22:37;94010.59;;;26.15;46.67
6150;BME280;3106;42.670;23.318;2023-06-10T09:25:04;94011.50;;;26.60;44.68
6150;BME280;3106;42.670;23.318;2023-06-10T09:27:32;94010.78;;;26.69;45.63
6150;BME280;3106;42.670;23.318;2023-06-10T09:29:59;94016.56;;;26.71;45.16
6150;BME280;3106;42.670;23.318;2023-06-10T09:32:26;94002.97;;;26.19;46.62
6150;BME280;3106;42.670;23.318;2023-06-10T09:34:54;94001.25;;;25.82;48.72
6150;BME280;3106;42.670;23.318;2023-06-10T09:37:22;94004.06;;;25.48;50.67
6150;BME280;3106;42.670;23.318;2023-06-10T09:40:05;93999.13;;;25.34;51.42
6150;BME280;3106;42.670;23.318;2023-06-10T09:42:33;93999.13;;;25.56;50.46
6150;BME280;3106;42.670;23.318;2023-06-10T09:45:01;93991.47;;;25.94;50.15
6150;BME280;3106;42.670;23.318;2023-06-10T09:47:28;93984.66;;;26.07;49.76
6150;BME280;3106;42.670;23.318;2023-06-10T09:49:55;93983.31;;;26.12;49.03
6150;BME280;3106;42.670;23.318;2023-06-10T09:52:22;93987.31;;;26.59;47.08
6150;BME280;3106;42.670;23.318;2023-06-10T09:54:50;93991.22;;;27.15;45.78
6150;BME280;3106;42.670;23.318;2023-06-10T09:57:19;93991.69;;;27.32;43.49
6150;BME280;3106;42.670;23.318;2023-06-10T09:59:46;93981.75;;;26.98;43.75
6150;BME280;3106;42.670;23.318;2023-06-10T10:02:14;93985.72;;;27.15;41.47
6150;BME280;3106;42.670;23.318;2023-06-10T10:04:42;93988.63;;;27.57;42.10
6150;BME280;3106;42.670;23.318;2023-06-10T10:07:08;93975.66;;;27.48;41.41
6150;BME280;3106;42.670;23.318;2023-06-10T10:09:36;93978.06;;;27.64;40.22
6150;BME280;3106;42.670;23.318;2023-06-10T10:12:05;93978.50;;;27.90;40.35
6150;BME280;3106;42.670;23.318;2023-06-10T10:14:36;93972.38;;;27.86;41.60
6150;BME280;3106;42.670;23.318;2023-06-10T10:17:04;93967.81;;;27.83;41.73
6150;BME280;3106;42.670;23.318;2023-06-10T10:19:36;93971.53;;;27.44;40.79
6150;BME280;3106;42.670;23.318;2023-06-10T10:22:07;93966.34;;;27.28;43.23
6150;BME280;3106;42.670;23.318;2023-06-10T10:24:38;93964.00;;;26.72;45.46
6150;BME280;3106;42.670;23.318;2023-06-10T10:27:13;93962.16;;;26.60;45.71
6150;BME280;3106;42.670;23.318;2023-06-10T10:29:43;93962.94;;;26.70;45.27
6150;BME280;3106;42.670;23.318;2023-06-10T10:32:13;93953.81;;;27.00;44.48
6150;BME280;3106;42.670;23.318;2023-06-10T10:34:47;93963.59;;;27.55;44.19
6150;BME280;3106;42.670;23.318;2023-06-10T10:37:17;93960.34;;;27.83;43.58
6150;BME280;3106;42.670;23.318;2023-06-10T10:39:44;93948.34;;;27.27;43.32
6150;BME280;3106;42.670;23.318;2023-06-10T10:42:12;93955.38;;;27.10;44.39
6150;BME280;3106;42.670;23.318;2023-06-10T10:44:42;93937.66;;;26.93;45.19
6150;BME280;3106;42.670;23.318;2023-06-10T10:47:09;93943.16;;;27.38;44.26
6150;BME280;3106;42.670;23.318;2023-06-10T10:49:38;93941.38;;;27.94;42.81
6150;BME280;3106;42.670;23.318;2023-06-10T10:52:11;93933.19;;;28.50;42.07
6150;BME280;3106;42.670;23.318;2023-06-10T10:54:43;93945.09;;;28.79;40.77
6150;BME280;3106;42.670;23.318;2023-06-10T10:57:11;93952.19;;;28.39;40.78
6150;BME280;3106;42.670;23.318;2023-06-10T10:59:50;93938.91;;;27.96;41.51
6150;BME280;3106;42.670;23.318;2023-06-10T11:02:18;93937.44;;;27.68;41.87
6150;BME280;3106;42.670;23.318;2023-06-10T11:04:46;93928.84;;;27.93;41.82
6150;BME280;3106;42.670;23.318;2023-06-10T11:07:13;93927.97;;;28.19;42.28
6150;BME280;3106;42.670;23.318;2023-06-10T11:09:57;93929.16;;;28.36;40.93
6150;BME280;3106;42.670;23.318;2023-06-10T11:12:24;93930.38;;;27.94;41.59
6150;BME280;3106;42.670;23.318;2023-06-10T11:14:55;93923.28;;;27.70;42.03
6150;BME280;3106;42.670;23.318;2023-06-10T11:17:22;93921.72;;;27.69;42.68
6150;BME280;3106;42.670;23.318;2023-06-10T11:19:49;93902.75;;;27.88;42.52
6150;BME280;3106;42.670;23.318;2023-06-10T11:22:16;93909.47;;;28.52;42.11
6150;BME280;3106;42.670;23.318;2023-06-10T11:24:47;93912.16;;;28.61;40.44
6150;BME280;3106;42.670;23.318;2023-06-10T11:27:15;93909.41;;;28.38;40.80
6150;BME280;3106;42.670;23.318;2023-06-10T11:30:00;93903.91;;;28.38;40.71
6150;BME280;3106;42.670;23.318;2023-06-10T11:32:44;93894.78;;;28.55;40.84
6150;BME280;3106;42.670;23.318;2023-06-10T11:35:11;93895.91;;;28.16;41.47
6150;BME280;3106;42.670;23.318;2023-06-10T11:37:38;93892.38;;;27.92;42.15
6150;BME280;3106;42.670;23.318;2023-06-10T11:40:07;93892.72;;;27.77;41.95
6150;BME280;3106;42.670;23.318;2023-06-10T11:42:39;93899.56;;;27.22;43.14
6150;BME280;3106;42.670;23.318;2023-06-10T11:45:09;93885.81;;;27.13;42.97
6150;BME280;3106;42.670;23.318;2023-06-10T11:47:35;93883.22;;;26.91;43.80
6150;BME280;3106;42.670;23.318;2023-06-10T11:50:02;93885.22;;;27.00;43.80
6150;BME280;3106;42.670;23.318;2023-06-10T11:52:31;93893.00;;;27.10;44.06
6150;BME280;3106;42.670;23.318;2023-06-10T11:54:59;93886.59;;;26.86;44.19
6150;BME280;3106;42.670;23.318;2023-06-10T11:57:26;93887.34;;;26.78;44.75
6150;BME280;3106;42.670;23.318;2023-06-10T11:59:53;93880.31;;;27.04;43.99
6150;BME280;3106;42.670;23.318;2023-06-10T12:02:21;93872.88;;;27.04;44.10
6150;BME280;3106;42.670;23.318;2023-06-10T12:04:48;93890.09;;;27.32;43.55
6150;BME280;3106;42.670;23.318;2023-06-10T12:07:18;93893.06;;;27.52;42.38
6150;BME280;3106;42.670;23.318;2023-06-10T12:09:45;93870.00;;;27.76;42.84
6150;BME280;3106;42.670;23.318;2023-06-10T12:12:12;93881.06;;;28.23;42.23
6150;BME280;3106;42.670;23.318;2023-06-10T12:14:55;93884.25;;;28.54;41.55
6150;BME280;3106;42.670;23.318;2023-06-10T12:17:36;93888.03;;;28.80;39.26
6150;BME280;3106;42.670;23.318;2023-06-10T12:20:04;93879.50;;;28.78;39.06
6150;BME280;3106;42.670;23.318;2023-06-10T12:22:36;93883.13;;;28.60;37.79
6150;BME280;3106;42.670;23.318;2023-06-10T12:25:04;93875.31;;;28.44;38.18
6150;BME280;3106;42.670;23.318;2023-06-10T12:27:32;93874.53;;;28.67;37.61
6150;BME280;3106;42.670;23.318;2023-06-10T12:30:00;93868.84;;;28.71;36.68
6150;BME280;3106;42.670;23.318;2023-06-10T12:32:38;93869.41;;;28.75;37.06
6150;BME280;3106;42.670;23.318;2023-06-10T12:35:07;93863.47;;;28.76;37.25
6150;BME280;3106;42.670;23.318;2023-06-10T12:37:35;93871.50;;;28.89;35.94
6150;BME280;3106;42.670;23.318;2023-06-10T12:40:03;93866.13;;;28.85;36.50
6150;BME280;3106;42.670;23.318;2023-06-10T12:42:31;93848.09;;;28.84;36.19
6150;BME280;3106;42.670;23.318;2023-06-10T12:44:59;93856.41;;;28.99;37.29
6150;BME280;3106;42.670;23.318;2023-06-10T12:47:30;93859.94;;;29.14;36.68
6150;BME280;3106;42.670;23.318;2023-06-10T12:50:02;93852.84;;;29.22;36.32
6150;BME280;3106;42.670;23.318;2023-06-10T12:52:29;93860.22;;;29.30;34.67
6150;BME280;3106;42.670;23.318;2023-06-10T12:54:58;93866.13;;;29.23;34.19
6150;BME280;3106;42.670;23.318;2023-06-10T12:57:25;93870.22;;;28.52;33.57
6150;BME280;3106;42.670;23.318;2023-06-10T12:59:52;93864.41;;;27.94;34.78
6150;BME280;3106;42.670;23.318;2023-06-10T13:02:19;93861.75;;;27.67;34.70
6150;BME280;3106;42.670;23.318;2023-06-10T13:04:49;93860.31;;;27.30;35.23
6150;BME280;3106;42.670;23.318;2023-06-10T13:07:17;93867.63;;;27.33;35.68
6150;BME280;3106;42.670;23.318;2023-06-10T13:09:44;93872.81;;;27.49;34.62